Time;durP1;ratioP1;P1;durP2;ratioP2;P2;SDS_P1;SDS_P2;PMS_P1;PMS_P2;Temp;Humidity;BMP_temperature;BMP_pressure;BME280_temperature;BME280_humidity;BME280_pressure;Samples;Min_cycle;Max_cycle;Signal;HPM_P1;HPM_P2
2022/01/26 00:00:41;;;;;;;47.53;24.63;;;;;;;11.58;53.21;102142.91;5031297;28;20049;-71
2022/01/26 00:05:53;;;;;;;45.00;21.98;;;;;;;11.53;54.37;102142.97;5026584;28;20049;-70
2022/01/26 00:08:39;;;;;;;60.80;27.38;;;;;;;11.51;52.75;102158.00;5030227;28;20049;-72
2022/01/26 00:11:25;;;;;;;57.83;28.63;;;;;;;11.51;53.78;102152.53;5028096;28;20049;-70
2022/01/26 00:14:12;;;;;;;38.53;19.52;;;;;;;11.52;56.00;102151.44;5045971;28;20041;-70
2022/01/26 00:17:00;;;;;;;34.45;15.77;;;;;;;11.61;58.93;102146.19;5052474;28;20417;-71
2022/01/26 00:19:57;;;;;;;47.15;21.63;;;;;;;11.57;56.73;102146.78;5052549;28;20718;-71
2022/01/26 00:41:02;;;;;;;40.08;21.38;;;;;;;11.69;56.47;102116.38;5052132;28;20049;-72
2022/01/26 00:43:53;;;;;;;55.47;28.10;;;;;;;11.70;55.07;102119.94;5046847;28;20041;-71
2022/01/26 00:46:41;;;;;;;64.18;28.65;;;;;;;11.66;53.47;102122.44;5048657;28;20052;-72
2022/01/26 00:49:27;;;;;;;51.75;24.75;;;;;;;11.67;54.89;102115.88;5046424;28;20044;-71
2022/01/26 00:52:14;;;;;;;47.78;22.58;;;;;;;11.69;55.46;102110.13;5052465;28;20040;-72
2022/01/26 00:54:59;;;;;;;46.58;24.00;;;;;;;11.68;55.78;102103.06;5045800;28;20049;-71
2022/01/26 00:57:44;;;;;;;;;;;;;;;11.70;55.86;102106.31;5046492;28;20045;-71
2022/01/26 01:00:29;;;;;;;52.55;26.30;;;;;;;11.65;55.04;102098.19;5050611;28;19916;-71
2022/01/26 01:03:14;;;;;;;46.35;24.13;;;;;;;11.66;55.64;102105.25;5048076;28;20393;-71
2022/01/26 01:06:08;;;;;;;;;;;;;;;11.64;54.59;102097.38;5042021;28;20457;-71
2022/01/26 01:08:56;;;;;;;55.38;26.70;;;;;;;11.69;56.79;102094.59;5049622;28;20296;-71
2022/01/26 01:11:41;;;;;;;59.60;28.92;;;;;;;11.67;55.85;102096.81;5046050;28;20041;-71
2022/01/26 01:14:26;;;;;;;40.88;22.92;;;;;;;11.70;58.53;102101.66;5045502;28;20045;-71
2022/01/26 01:17:21;;;;;;;53.67;25.35;;;;;;;11.66;54.46;102097.09;5047382;28;20049;-71
2022/01/26 01:23:24;;;;;;;26.77;14.25;;;;;;;11.63;59.62;102095.75;5045249;28;20044;-72
2022/01/26 01:32:01;;;;;;;37.75;19.98;;;;;;;11.61;59.32;102097.97;5024784;28;20608;-72
2022/01/26 01:34:46;;;;;;;30.65;16.27;;;;;;;11.67;59.77;102104.97;5030120;28;20045;-70
2022/01/26 01:37:31;;;;;;;21.80;11.40;;;;;;;11.65;60.22;102090.81;5036653;28;20037;-70
2022/01/26 01:40:16;;;;;;;38.45;18.67;;;;;;;11.63;58.67;102097.69;5035755;28;20045;-70
2022/01/26 01:43:01;;;;;;;45.42;20.83;;;;;;;11.69;60.06;102100.03;5030602;28;20139;-70
2022/01/26 01:45:49;;;;;;;17.92;9.93;;;;;;;11.70;59.69;102096.22;5028801;28;20840;-70
2022/01/26 01:48:34;;;;;;;29.25;14.95;;;;;;;11.70;59.87;102101.66;5046335;28;20063;-70
2022/01/26 01:51:20;;;;;;;;;;;;;;;11.68;58.50;102103.88;5051068;28;20539;-70
2022/01/26 01:54:09;;;;;;;32.05;15.70;;;;;;;11.68;59.82;102103.88;5048291;28;20376;-70
2022/01/26 01:56:58;;;;;;;55.55;26.38;;;;;;;11.68;59.76;102103.06;5052202;28;20044;-70
2022/01/26 01:59:43;;;;;;;27.15;13.75;;;;;;;11.68;60.20;102108.53;5031456;28;20041;-70
2022/01/26 02:02:27;;;;;;;;;;;;;;;11.65;58.93;102100.91;5028977;28;20053;-70
2022/01/26 02:05:12;;;;;;;26.13;14.43;;;;;;;11.63;60.41;102103.91;5029845;28;19916;-70
2022/01/26 02:07:59;;;;;;;42.13;19.58;;;;;;;11.57;57.26;102102.38;5031749;28;20401;-70
2022/01/26 02:10:44;;;;;;;43.80;22.73;;;;;;;11.61;57.56;102097.97;5031624;28;20045;-69
2022/01/26 02:13:36;;;;;;;57.78;25.33;;;;;;;11.61;56.95;102097.97;5034301;28;20053;-70
2022/01/26 02:16:41;;;;;;;32.97;16.45;;;;;;;11.59;56.54;102094.69;5029725;28;20045;-70
2022/01/26 02:55:45;;;;;;;25.60;14.75;;;;;;;11.49;59.93;102078.44;5027515;28;20049;-70
2022/01/26 03:07:20;;;;;;;47.97;23.63;;;;;;;11.40;56.14;102058.41;5032104;28;20045;-72
2022/01/26 03:10:15;;;;;;;53.33;26.30;;;;;;;11.40;56.64;102061.13;5040185;28;20501;-72
2022/01/26 03:13:14;;;;;;;64.38;30.33;;;;;;;11.36;56.32;102052.72;5047622;28;20048;-72
2022/01/26 03:16:14;;;;;;;68.45;31.52;;;;;;;11.35;55.61;102053.00;5046256;28;20048;-72
2022/01/26 03:36:16;;;;;;;53.22;23.30;;;;;;;11.25;59.95;102047.66;5025509;28;20057;-69
2022/01/26 03:39:08;;;;;;;40.85;19.13;;;;;;;11.20;60.48;102043.06;5030119;28;20112;-70
2022/01/26 03:42:05;;;;;;;34.00;16.73;;;;;;;11.29;62.17;102041.34;5032391;28;20057;-70
2022/01/26 03:44:50;;;;;;;44.97;22.35;;;;;;;11.28;61.36;102036.16;5034922;28;20385;-70
2022/01/26 03:47:35;;;;;;;28.70;13.70;;;;;;;11.34;62.64;102037.75;5028335;28;20041;-70
2022/01/26 03:50:20;;;;;;;22.40;11.30;;;;;;;11.37;64.07;102042.63;5026695;28;20049;-70
2022/01/26 03:53:05;;;;;;;37.78;16.02;;;;;;;11.36;63.78;102036.38;5011270;28;20597;-70
2022/01/26 03:55:50;;;;;;;99.72;30.08;;;;;;;11.36;62.48;102041.00;5026504;28;20589;-69
2022/01/26 03:58:35;;;;;;;81.47;30.38;;;;;;;11.33;60.87;102039.66;5026558;28;20049;-69
2022/01/26 04:01:21;;;;;;;;;;;;;;;11.36;61.37;102047.28;5030077;28;20037;-69
2022/01/26 04:04:06;;;;;;;120.85;36.78;;;;;;;11.34;62.49;102035.84;5027483;28;19916;-69
2022/01/26 04:06:51;;;;;;;119.68;39.08;;;;;;;11.26;59.28;102038.38;5026586;28;20045;-69
2022/01/26 04:09:36;;;;;;;79.05;26.45;;;;;;;11.20;60.66;102043.06;5024177;28;20037;-68
2022/01/26 04:12:21;;;;;;;100.07;36.13;;;;;;;11.24;59.31;102046.03;5025883;28;20049;-68
2022/01/26 04:15:16;;;;;;;96.90;34.33;;;;;;;11.25;60.36;102039.47;5024222;28;20049;-68
2022/01/26 04:18:05;;;;;;;75.00;24.88;;;;;;;11.27;61.05;102045.47;5027583;28;20045;-69
2022/01/26 04:20:54;;;;;;;91.15;32.80;;;;;;;11.32;60.26;102039.97;5008101;28;20080;-68
2022/01/26 04:27:13;;;;;;;93.25;37.95;;;;;;;11.25;56.05;102036.75;5010815;28;20521;-68
2022/01/26 04:29:58;;;;;;;104.93;41.47;;;;;;;11.20;55.39;102039.53;5045355;28;20040;-69
2022/01/26 04:32:43;;;;;;;92.95;38.30;;;;;;;11.22;55.80;102037.34;5048958;28;20049;-68
2022/01/26 04:35:28;;;;;;;70.30;28.60;;;;;;;11.18;55.15;102036.28;5045511;28;20048;-69
2022/01/26 04:44:12;;;;;;;82.10;34.13;;;;;;;11.13;58.02;102043.38;5046460;28;20428;-68
2022/01/26 04:46:57;;;;;;;62.28;23.73;;;;;;;11.08;57.93;102035.28;5044320;28;20045;-69
2022/01/26 04:49:42;;;;;;;41.13;18.35;;;;;;;11.10;59.16;102035.81;5048417;28;20045;-68
2022/01/26 04:52:27;;;;;;;86.75;37.20;;;;;;;11.09;57.97;102031.47;5046354;28;20041;-68
2022/01/26 04:55:12;;;;;;;;;;;;;;;11.12;57.75;102030.09;5044726;28;20048;-68
2022/01/26 04:57:57;;;;;;;103.05;39.90;;;;;;;11.09;56.95;102036.91;5041723;28;19924;-68
2022/01/26 05:00:42;;;;;;;47.75;20.40;;;;;;;11.10;58.34;102033.09;5040958;28;20041;-69
2022/01/26 05:03:27;;;;;;;67.75;28.50;;;;;;;11.13;57.01;102031.69;5024596;28;20037;-68
2022/01/26 05:06:12;;;;;;;51.17;22.70;;;;;;;11.16;58.37;102028.41;5028697;28;20049;-68
2022/01/26 05:08:57;;;;;;;59.53;27.00;;;;;;;11.14;56.96;102034.13;5035128;28;20041;-68
2022/01/26 05:11:43;;;;;;;57.30;25.10;;;;;;;11.15;58.09;102033.03;5032435;28;20049;-68
2022/01/26 05:14:28;;;;;;;84.97;34.03;;;;;;;11.12;57.36;102027.38;5023161;28;20045;-68
2022/01/26 05:17:14;;;;;;;70.88;31.33;;;;;;;11.06;57.33;102031.22;5030011;28;20049;-68
2022/01/26 05:20:00;;;;;;;60.65;26.60;;;;;;;10.98;57.40;102031.81;5026472;28;20046;-68
2022/01/26 05:22:45;;;;;;;83.10;34.08;;;;;;;10.91;57.13;102045.78;5014261;28;20049;-69
2022/01/26 05:25:30;;;;;;;44.25;20.38;;;;;;;10.99;58.55;102036.19;5028431;28;20551;-68
2022/01/26 05:28:15;;;;;;;;;;;;;;;10.96;57.85;102037.56;5030109;28;20045;-68
2022/01/26 05:31:00;;;;;;;51.05;24.27;;;;;;;10.98;58.97;102043.53;5026646;28;19917;-68
2022/01/26 05:33:45;;;;;;;54.80;23.65;;;;;;;10.77;57.29;102039.34;5029694;28;20045;-68
2022/01/26 05:36:30;;;;;;;43.38;20.73;;;;;;;10.89;58.45;102033.53;5028733;28;20041;-68
2022/01/26 05:39:15;;;;;;;;;;;;;;;10.88;57.81;102031.91;5037059;28;20053;-68
2022/01/26 05:42:04;;;;;;;61.33;26.48;;;;;;;10.97;58.87;102039.19;5045636;28;20403;-68
2022/01/26 05:44:49;;;;;;;64.47;26.85;;;;;;;10.96;58.50;102032.13;5026009;28;20388;-68
2022/01/26 05:47:34;;;;;;;;;;;;;;;10.90;57.53;102035.16;5033340;28;20056;-68
2022/01/26 05:50:19;;;;;;;66.75;27.77;;;;;;;10.87;57.91;102033.81;5032812;28;19917;-69
2022/01/26 05:53:05;;;;;;;64.43;27.02;;;;;;;10.92;58.57;102033.78;5029821;28;20049;-68
2022/01/26 05:55:55;;;;;;;;;;;;;;;10.97;58.72;102033.72;5020379;28;20417;-68
2022/01/26 05:58:40;;;;;;;63.63;25.35;;;;;;;11.01;59.00;102037.53;5030212;28;19920;-68
2022/01/26 06:01:25;;;;;;;54.88;23.38;;;;;;;11.02;57.78;102030.97;5011828;28;20041;-68
2022/01/26 06:04:10;;;;;;;93.45;41.25;;;;;;;10.87;51.94;102028.38;5025433;28;20049;-68
2022/01/26 06:06:56;;;;;;;74.28;32.25;;;;;;;9.79;51.89;102023.84;5030587;28;20251;-68
2022/01/26 06:09:41;;;;;;;100.50;43.85;;;;;;;7.94;56.84;102020.84;5024223;28;20053;-68
2022/01/26 06:12:28;;;;;;;82.10;32.67;;;;;;;7.60;58.23;102033.97;5019532;28;20041;-68
2022/01/26 06:15:13;;;;;;;103.00;43.97;;;;;;;7.09;60.61;102030.94;5028662;28;20056;-68
2022/01/26 06:17:58;;;;;;;85.93;34.67;;;;;;;6.95;60.55;102031.66;5028884;28;20049;-68
2022/01/26 06:20:43;;;;;;;89.20;37.75;;;;;;;6.66;61.38;102037.34;5017759;28;20056;-68
2022/01/26 06:23:29;;;;;;;114.55;46.20;;;;;;;6.66;61.66;102042.75;5024912;28;20344;-68
2022/01/26 06:26:13;;;;;;;93.65;35.60;;;;;;;6.46;62.65;102039.84;5027061;28;20045;-68
2022/01/26 06:28:58;;;;;;;111.88;40.10;;;;;;;6.20;64.43;102035.25;5026936;28;20052;-68
2022/01/26 06:31:44;;;;;;;85.18;33.60;;;;;;;6.14;66.02;102038.97;5030617;28;20049;-68
2022/01/26 06:34:29;;;;;;;120.43;43.83;;;;;;;6.18;64.37;102040.09;5035428;28;20056;-68
2022/01/26 06:37:16;;;;;;;86.43;34.65;;;;;;;6.17;64.19;102043.88;5033536;28;20042;-68
2022/01/26 06:40:01;;;;;;;97.35;40.80;;;;;;;6.12;64.53;102047.31;5040872;28;20059;-68
2022/01/26 06:42:56;;;;;;;109.70;43.85;;;;;;;6.14;64.18;102041.69;5040334;28;20287;-68
2022/01/26 06:45:51;;;;;;;77.25;32.10;;;;;;;6.16;63.92;102048.44;5032865;28;20037;-67
2022/01/26 06:49:02;;;;;;;106.97;45.13;;;;;;;5.80;64.92;102041.78;5049622;28;20072;-68
2022/01/26 06:51:46;;;;;;;104.78;43.58;;;;;;;5.82;65.64;102039.66;5050575;28;20048;-67
2022/01/26 06:54:31;;;;;;;88.63;33.30;;;;;;;5.70;66.50;102046.22;5044177;28;20477;-68
2022/01/26 06:57:16;;;;;;;87.38;33.90;;;;;;;5.69;66.19;102050.00;5055842;28;20052;-68
2022/01/26 07:00:03;;;;;;;84.20;32.95;;;;;;;5.60;67.13;102046.91;5054054;28;20055;-68
2022/01/26 07:02:48;;;;;;;104.35;40.70;;;;;;;5.70;66.90;102051.63;5058184;28;20055;-68
2022/01/26 07:05:33;;;;;;;86.85;33.60;;;;;;;5.86;67.88;102053.44;5053999;28;20444;-67
2022/01/26 07:08:18;;;;;;;103.85;35.97;;;;;;;6.19;65.68;102063.34;5054162;28;20426;-67
2022/01/26 07:11:03;;;;;;;82.85;33.45;;;;;;;6.42;64.70;102063.88;5052590;28;20049;-68
2022/01/26 07:13:48;;;;;;;77.25;30.52;;;;;;;6.12;65.67;102066.22;5037125;28;20040;-68
2022/01/26 07:20:13;;;;;;;97.95;39.65;;;;;;;6.01;66.88;102064.47;5028114;28;20048;-68
2022/01/26 07:22:59;;;;;;;100.47;39.50;;;;;;;5.82;67.00;102071.22;5026538;28;20243;-68
2022/01/26 07:25:44;;;;;;;89.57;34.40;;;;;;;5.75;65.95;102066.00;5029633;28;20038;-68
2022/01/26 07:28:34;;;;;;;86.20;32.55;;;;;;;5.75;65.35;102068.69;5030593;28;20048;-68
2022/01/26 07:31:19;;;;;;;106.53;43.17;;;;;;;5.51;67.15;102059.19;5033217;28;20044;-67
2022/01/26 07:34:05;;;;;;;79.03;31.88;;;;;;;5.48;66.94;102059.69;5034130;28;20045;-68
2022/01/26 07:36:54;;;;;;;100.35;38.33;;;;;;;6.73;66.54;102065.00;5035330;28;20049;-67
2022/01/26 07:40:03;;;;;;;108.95;41.88;;;;;;;6.37;63.82;102073.81;5029522;28;20473;-71
2022/01/26 07:42:48;;;;;;;108.05;41.53;;;;;;;5.92;66.96;102069.50;5036388;28;20029;-71
2022/01/26 07:45:34;;;;;;;106.88;41.15;;;;;;;6.05;64.33;102073.69;5027456;28;20041;-71
2022/01/26 07:48:19;;;;;;;107.20;44.03;;;;;;;5.08;67.41;102084.97;5030896;28;20037;-67
2022/01/26 07:51:05;;;;;;;84.63;32.13;;;;;;;4.75;69.10;102071.47;5032710;28;20497;-67
2022/01/26 07:53:50;;;;;;;;;;;;;;;4.76;68.97;102072.28;5030809;28;20045;-67
2022/01/26 07:56:34;;;;;;;115.93;41.67;;;;;;;4.71;69.51;102076.53;5032490;28;19913;-67
2022/01/26 07:59:19;;;;;;;77.40;32.53;;;;;;;4.63;69.90;102070.69;5036415;28;20037;-67
2022/01/26 08:02:04;;;;;;;88.15;34.88;;;;;;;4.57;70.40;102077.09;5034671;28;20406;-67
2022/01/26 08:04:49;;;;;;;79.95;33.42;;;;;;;4.49;70.79;102077.44;5032642;28;20056;-67
2022/01/26 08:07:35;;;;;;;87.43;33.97;;;;;;;4.60;69.78;102081.97;5036728;28;20402;-67
2022/01/26 08:10:20;;;;;;;101.93;42.38;;;;;;;4.54;70.79;102081.06;5034513;28;20401;-67
2022/01/26 08:13:04;;;;;;;83.40;32.45;;;;;;;4.64;70.12;102081.25;5032915;28;20037;-67
2022/01/26 08:15:50;;;;;;;83.18;35.72;;;;;;;4.67;70.03;102071.88;5032248;28;20052;-67
2022/01/26 08:18:35;;;;;;;102.18;41.67;;;;;;;4.60;70.41;102079.28;5034537;28;20052;-67
2022/01/26 08:21:20;;;;;;;84.93;32.85;;;;;;;4.52;70.85;102071.59;5032836;28;20045;-67
2022/01/26 08:24:13;;;;;;;84.07;34.45;;;;;;;4.71;70.79;102071.16;5036447;28;20049;-67
2022/01/26 08:27:05;;;;;;;91.53;40.60;;;;;;;4.77;70.43;102066.66;5034692;28;20048;-67
2022/01/26 08:29:55;;;;;;;111.65;46.13;;;;;;;4.99;69.48;102064.88;5032470;28;20401;-67
2022/01/26 08:32:40;;;;;;;112.20;43.38;;;;;;;5.03;69.35;102066.00;5036160;28;20045;-66
2022/01/26 08:35:25;;;;;;;86.40;35.75;;;;;;;5.10;69.18;102068.53;5033080;28;20049;-67
2022/01/26 08:38:09;;;;;;;108.45;46.50;;;;;;;5.04;69.35;102069.53;5032382;28;20108;-67
2022/01/26 08:40:55;;;;;;;91.70;37.83;;;;;;;5.17;68.79;102066.50;5036050;28;20529;-67
2022/01/26 08:43:40;;;;;;;88.82;37.42;;;;;;;5.28;68.52;102070.19;5034352;28;20056;-67
2022/01/26 08:46:25;;;;;;;82.93;35.25;;;;;;;5.34;68.06;102061.09;5036616;28;20076;-67
2022/01/26 08:49:10;;;;;;;81.78;31.85;;;;;;;5.36;67.87;102056.28;5040465;28;20056;-67
2022/01/26 08:51:55;;;;;;;81.95;34.10;;;;;;;5.66;67.00;102075.59;5038819;28;20045;-67
2022/01/26 08:54:40;;;;;;;79.72;34.15;;;;;;;5.64;67.17;102077.72;5036542;28;20509;-67
2022/01/26 08:57:25;;;;;;;94.32;35.35;;;;;;;5.93;66.19;102067.63;5040601;28;20397;-67
2022/01/26 09:00:11;;;;;;;82.03;33.67;;;;;;;5.89;66.61;102080.78;5038451;28;20053;-67
2022/01/26 09:02:57;;;;;;;96.85;43.05;;;;;;;5.95;66.01;102076.28;5036451;28;20048;-67
2022/01/26 09:05:42;;;;;;;101.38;43.35;;;;;;;6.10;65.51;102072.94;5036034;28;20048;-67
2022/01/26 09:08:26;;;;;;;82.07;36.30;;;;;;;6.23;64.66;102077.97;5038682;28;20045;-67
2022/01/26 09:11:12;;;;;;;74.20;34.58;;;;;;;6.26;64.48;102072.88;5036462;28;20072;-67
2022/01/26 09:13:58;;;;;;;104.40;42.25;;;;;;;6.34;63.72;102079.72;5040427;28;20053;-67
2022/01/26 09:16:50;;;;;;;98.90;41.50;;;;;;;6.44;63.52;102079.84;5034474;28;20037;-67
2022/01/26 09:19:35;;;;;;;98.28;42.67;;;;;;;6.69;62.83;102085.50;5033946;28;20049;-67
2022/01/26 09:22:20;;;;;;;96.72;43.80;;;;;;;7.04;61.11;102078.78;5031948;28;20041;-67
2022/01/26 09:25:05;;;;;;;77.07;33.78;;;;;;;6.88;61.26;102084.06;5036929;28;20052;-67
2022/01/26 09:27:50;;;;;;;80.13;33.17;;;;;;;6.89;61.44;102074.06;5036431;28;20048;-67
2022/01/26 09:30:35;;;;;;;74.88;34.30;;;;;;;6.67;61.71;102084.09;5040046;28;20060;-67
2022/01/26 09:33:20;;;;;;;81.03;34.97;;;;;;;6.69;62.37;102081.97;5038078;28;20044;-67
2022/01/26 09:36:05;;;;;;;75.80;32.20;;;;;;;7.20;60.38;102083.25;5034488;28;20068;-67
2022/01/26 09:38:50;;;;;;;78.25;32.47;;;;;;;7.14;59.87;102079.69;5034680;28;20053;-67
2022/01/26 09:41:37;;;;;;;82.00;34.85;;;;;;;7.30;60.14;102086.03;5038733;28;20530;-67
2022/01/26 09:44:22;;;;;;;94.25;41.13;;;;;;;7.48;59.67;102082.88;5036176;28;20048;-67
2022/01/26 09:47:08;;;;;;;75.95;33.55;;;;;;;7.25;59.47;102084.09;5034744;28;20052;-67
2022/01/26 09:49:52;;;;;;;97.20;42.00;;;;;;;6.99;60.51;102081.44;5038536;28;20040;-67
2022/01/26 09:52:44;;;;;;;71.10;30.85;;;;;;;6.87;60.94;102076.19;5036548;28;20048;-67
2022/01/26 09:55:30;;;;;;;99.40;40.40;;;;;;;7.16;59.65;102066.69;5033248;28;20528;-67
2022/01/26 09:58:15;;;;;;;101.55;44.28;;;;;;;6.71;61.60;102075.22;5038313;28;20049;-67
2022/01/26 10:01:04;;;;;;;79.20;33.67;;;;;;;6.85;61.15;102075.66;5036414;28;20067;-67
2022/01/26 10:03:50;;;;;;;99.47;42.63;;;;;;;7.69;58.82;102070.28;5034008;28;20045;-67
2022/01/26 10:06:40;;;;;;;110.90;45.28;;;;;;;7.03;61.10;102066.31;5031606;28;20044;-67
2022/01/26 10:15:35;;;;;;;91.95;41.67;;;;;;;6.93;61.10;102056.25;5021735;28;20040;-67
2022/01/26 10:18:21;;;;;;;;;;;;;;;7.24;60.02;102057.28;5024022;28;20060;-68
2022/01/26 10:21:08;;;;;;;67.60;31.53;;;;;;;7.10;60.76;102061.53;5028006;28;20380;-67
2022/01/26 10:23:56;;;;;;;88.55;39.70;;;;;;;7.58;58.95;102052.34;5024242;28;20079;-67
2022/01/26 10:26:48;;;;;;;99.45;42.33;;;;;;;7.41;59.78;102049.84;5022951;28;20056;-67
2022/01/26 10:29:34;;;;;;;96.57;41.90;;;;;;;7.16;60.11;102046.97;5022228;28;20040;-67
2022/01/26 10:32:19;;;;;;;94.93;43.08;;;;;;;6.96;60.36;102038.69;5023096;28;20108;-67
2022/01/26 10:35:06;;;;;;;93.88;41.75;;;;;;;6.85;60.91;102038.63;5022171;28;20517;-67
2022/01/26 10:37:55;;;;;;;98.38;43.35;;;;;;;6.83;60.81;102040.75;5025368;28;20044;-67
2022/01/26 10:40:40;;;;;;;96.00;42.05;;;;;;;6.58;62.09;102039.69;5025177;28;20044;-67
2022/01/26 10:43:29;;;;;;;83.88;33.58;;;;;;;6.49;62.32;102041.25;5025099;28;20044;-67
2022/01/26 10:46:25;;;;;;;93.15;43.03;;;;;;;6.67;62.25;102047.09;5019059;28;20053;-67
2022/01/26 10:52:03;;;;;;;89.78;41.13;;;;;;;6.73;61.65;102020.91;5021312;28;20034;-67
2022/01/26 10:54:49;;;;;;;96.35;43.13;;;;;;;6.76;61.79;102013.09;5025831;28;20049;-67
2022/01/26 10:57:35;;;;;;;90.07;42.80;;;;;;;6.65;62.20;102010.59;5019012;28;20402;-67
2022/01/26 11:00:20;;;;;;;102.00;42.70;;;;;;;6.82;61.63;102009.38;5021673;28;20045;-67
2022/01/26 11:03:06;;;;;;;89.07;42.13;;;;;;;6.88;61.35;102002.94;5028893;28;20030;-67
2022/01/26 11:05:51;;;;;;;;;;;;;;;7.17;60.17;101995.28;5014269;28;20049;-67
2022/01/26 11:08:39;;;;;;;71.65;31.30;;;;;;;7.03;60.52;102004.94;5032622;28;19917;-67
2022/01/26 11:11:24;;;;;;;89.43;40.33;;;;;;;6.97;60.73;101997.03;5015096;28;20053;-68
2022/01/26 11:14:22;;;;;;;92.70;42.72;;;;;;;6.88;61.43;101989.41;5028471;28;20040;-68
2022/01/26 11:17:08;;;;;;;99.03;44.40;;;;;;;6.97;61.32;101986.22;5037077;28;20064;-68
2022/01/26 11:19:56;;;;;;;93.40;40.92;;;;;;;6.95;61.50;101982.97;5034786;28;20057;-68
2022/01/26 11:22:53;;;;;;;94.88;43.85;;;;;;;7.10;60.42;101983.09;5026537;28;20505;-68
2022/01/26 11:25:44;;;;;;;97.63;41.92;;;;;;;6.90;60.69;101991.06;5027230;28;20087;-68
2022/01/26 11:28:30;;;;;;;100.28;43.75;;;;;;;7.11;60.14;101982.00;5027398;28;20060;-68
2022/01/26 11:31:17;;;;;;;90.32;42.60;;;;;;;6.81;61.82;101980.69;5027822;28;20897;-68
2022/01/26 11:34:02;;;;;;;94.65;44.70;;;;;;;7.03;61.37;101975.19;5027759;28;20413;-68
2022/01/26 11:36:49;;;;;;;83.32;35.25;;;;;;;6.95;60.93;101970.28;5036221;28;20048;-68
2022/01/26 11:46:18;;;;;;;94.95;43.33;;;;;;;6.97;61.24;101961.88;5013064;28;20042;-68
2022/01/26 11:49:11;;;;;;;72.97;33.13;;;;;;;7.21;60.84;101955.03;5017048;28;20049;-68
2022/01/26 11:51:57;;;;;;;98.70;41.08;;;;;;;7.16;61.18;101955.00;5014300;28;20064;-68
2022/01/26 11:54:52;;;;;;;98.30;42.50;;;;;;;7.23;60.58;101952.84;5012447;28;20048;-68
2022/01/26 11:57:38;;;;;;;84.22;34.83;;;;;;;7.25;61.35;101942.59;5016356;28;20418;-68
2022/01/26 12:00:54;;;;;;;105.15;45.13;;;;;;;7.16;61.21;101938.78;5014619;28;20053;-67
2022/01/26 12:03:55;;;;;;;84.65;36.00;;;;;;;6.89;62.47;101925.34;5029405;28;20037;-68
2022/01/26 12:06:47;;;;;;;91.25;43.45;;;;;;;7.07;61.38;101922.19;5025869;28;20052;-68
2022/01/26 12:09:31;;;;;;;101.50;46.25;;;;;;;7.07;61.60;101921.38;5030366;28;20041;-67
2022/01/26 12:12:18;;;;;;;78.60;34.72;;;;;;;7.19;61.74;101916.59;5029168;28;20041;-68
2022/01/26 12:15:11;;;;;;;95.38;42.20;;;;;;;7.71;60.29;101928.19;5027771;28;20057;-67
2022/01/26 12:18:13;;;;;;;104.22;44.38;;;;;;;7.39;60.62;101913.16;5028788;28;20552;-68
2022/01/26 12:33:43;;;;;;;80.75;34.97;;;;;;;7.12;61.54;101889.78;5038140;28;20037;-68
2022/01/26 12:36:40;;;;;;;105.93;43.00;;;;;;;7.21;61.92;101884.69;5023765;28;20044;-67
2022/01/26 12:42:57;;;;;;;100.28;44.22;;;;;;;7.17;62.41;101880.88;5016375;28;20498;-68
2022/01/26 12:45:44;;;;;;;105.15;44.88;;;;;;;7.08;62.82;101882.44;5019537;28;20045;-68
2022/01/26 12:48:30;;;;;;;108.78;45.13;;;;;;;7.02;62.86;101869.97;5023784;28;20405;-68
2022/01/26 12:51:15;;;;;;;109.55;43.47;;;;;;;7.15;62.32;101870.34;5015254;28;20042;-68
2022/01/26 12:54:03;;;;;;;104.60;44.95;;;;;;;6.99;63.03;101873.22;5013191;28;20050;-68
2022/01/26 12:56:48;;;;;;;114.97;48.58;;;;;;;7.05;63.13;101866.75;5016763;28;20045;-67
2022/01/26 12:59:33;;;;;;;116.47;45.95;;;;;;;7.13;63.66;101866.25;5014995;28;20042;-67
2022/01/26 13:02:23;;;;;;;89.47;36.35;;;;;;;7.21;62.64;101863.06;5013378;28;20089;-67
2022/01/26 13:05:09;;;;;;;108.85;46.70;;;;;;;6.93;63.94;101872.38;5013896;28;20061;-68
2022/01/26 13:08:05;;;;;;;106.70;42.60;;;;;;;7.12;63.13;101875.44;5015149;28;20042;-68
2022/01/26 13:11:01;;;;;;;112.82;44.20;;;;;;;7.00;63.71;101864.03;5012524;28;20042;-68
2022/01/26 13:13:46;;;;;;;94.57;35.20;;;;;;;6.95;63.93;101859.41;5028306;28;20486;-68
2022/01/26 13:16:37;;;;;;;90.07;36.83;;;;;;;7.17;62.98;101861.94;5025443;28;20029;-68
2022/01/26 13:20:18;;;;;;;118.70;47.38;;;;;;;6.97;63.92;101868.06;5031176;28;20060;-68
2022/01/26 13:41:08;;;;;;;121.13;45.88;;;;;;;6.88;64.04;101864.22;5032163;28;20038;-67
2022/01/26 13:53:08;;;;;;;109.20;42.70;;;;;;;6.79;64.97;101863.94;5034322;28;20403;-68
2022/01/26 13:59:10;;;;;;;119.03;44.30;;;;;;;6.68;65.50;101885.75;5031010;28;20033;-67
2022/01/26 14:01:51;;;;;;;109.93;42.72;;;;;;;6.64;65.77;101876.53;5034670;28;20037;-68
2022/01/26 14:04:36;;;;;;;119.20;44.92;;;;;;;6.51;65.76;101885.06;5029747;28;20037;-68
2022/01/26 14:07:21;;;;;;;100.78;35.53;;;;;;;6.43;66.50;101889.91;5026097;28;20041;-68
2022/01/26 14:10:07;;;;;;;89.38;35.40;;;;;;;6.53;66.29;101888.34;5034418;28;20033;-67
2022/01/26 14:12:52;;;;;;;121.43;44.00;;;;;;;6.57;66.37;101876.75;5028498;28;20116;-68
2022/01/26 14:15:44;;;;;;;90.50;34.97;;;;;;;6.47;66.54;101870.44;5028259;28;20046;-68
2022/01/26 14:18:47;;;;;;;121.97;46.47;;;;;;;6.42;66.50;101863.94;5033181;28;20124;-68
2022/01/26 14:27:56;;;;;;;85.03;33.92;;;;;;;6.49;67.01;101847.53;5035463;28;20038;-68
2022/01/26 14:39:24;;;;;;;115.50;44.72;;;;;;;6.31;67.89;101858.72;5014309;28;20488;-68
2022/01/26 14:40:13;;;;;;;115.75;43.97;;;;;;;6.15;68.06;101875.88;5016156;28;20042;-68
2022/01/26 15:34:22;;;;;;;124.82;45.40;;;;;;;5.94;69.77;101872.97;5028835;28;20046;-68
2022/01/26 15:40:22;;;;;;;133.90;47.70;;;;;;;5.87;70.62;101885.88;5032005;28;20042;-68
2022/01/26 16:07:45;;;;;;;128.20;45.58;;;;;;;5.87;71.16;101875.09;5027638;28;20041;-68
2022/01/26 16:16:35;;;;;;;127.05;45.00;;;;;;;5.76;70.99;101851.72;5031478;28;20059;-68
2022/01/26 16:35:29;;;;;;;128.30;45.60;;;;;;;5.83;71.32;101881.22;5032933;28;20037;-68
2022/01/26 17:11:29;;;;;;;80.55;28.90;;;;;;;7.93;71.65;101886.50;5030338;28;20053;-68
2022/01/26 18:15:58;;;;;;;91.85;33.33;;;;;;;9.92;67.92;101924.63;5028102;28;20055;-69
2022/01/26 18:51:18;;;;;;;94.00;33.13;;;;;;;10.50;64.39;101944.63;5032700;28;20037;-69
2022/01/26 18:54:05;;;;;;;69.43;26.60;;;;;;;10.55;65.87;101938.34;5035996;28;20041;-69
2022/01/26 18:56:51;;;;;;;79.00;30.83;;;;;;;10.60;65.19;101941.03;5021372;28;20037;-69
2022/01/26 18:59:37;;;;;;;84.05;31.48;;;;;;;10.64;66.23;101947.50;5023012;28;20045;-69
2022/01/26 19:02:24;;;;;;;81.13;29.35;;;;;;;10.64;64.79;101951.03;5036278;28;20033;-69
2022/01/26 19:05:10;;;;;;;110.22;38.97;;;;;;;10.65;63.40;101936.34;5027706;28;20541;-69
2022/01/26 19:07:57;;;;;;;109.97;40.05;;;;;;;10.57;60.27;101936.94;5023975;28;20046;-69
2022/01/26 19:10:42;;;;;;;115.00;43.30;;;;;;;10.55;58.64;101930.19;5036515;28;20042;-69
2022/01/26 19:13:30;;;;;;;82.47;31.00;;;;;;;10.53;58.67;101932.38;5033714;28;20409;-68
2022/01/26 19:16:41;;;;;;;119.85;44.05;;;;;;;10.56;58.86;101931.81;5030348;28;20482;-69
2022/01/26 19:19:35;;;;;;;115.93;42.10;;;;;;;10.48;57.89;101935.13;5031473;28;20037;-69
2022/01/26 19:25:18;;;;;;;119.40;44.53;;;;;;;10.40;57.52;101941.19;5034649;28;20045;-69
2022/01/26 19:51:39;;;;;;;122.38;40.67;;;;;;;10.34;57.39;101934.97;5039344;28;20033;-69
2022/01/26 19:54:24;;;;;;;125.90;44.10;;;;;;;10.35;57.40;101933.88;5034105;28;20037;-69
2022/01/26 19:57:09;;;;;;;85.78;31.73;;;;;;;10.33;57.30;101935.25;5030763;28;20053;-69
2022/01/26 19:59:54;;;;;;;88.28;30.60;;;;;;;10.34;57.47;101926.81;5031640;28;20045;-68
2022/01/26 20:02:38;;;;;;;;;;;;;;;10.36;57.96;101927.34;5036957;28;20041;-68
2022/01/26 20:05:23;;;;;;;109.72;41.88;;;;;;;10.39;57.71;101931.41;5030346;28;20304;-68